< < Back
Terminal Aerodrome Forecast


Current Version              Previous Versions:   1  2  3  4  5  6  7  8  9  

Terminal Aerodrome Forecast

557
FTUS42 KFFC 192300
TAFAHN
TAF
KAHN 192333Z 2000/2024 05014G24KT 6SM -DZ VCSH OVC015
     FM201200 05013G23KT P6SM BKN040
     FM202100 07011KT P6SM SCT060=

Latest METAR

880
SAUS70 KWBC 200800
MTRAHN
METAR KAHN 200751Z AUTO 07012G24KT 10SM FEW047 SCT065 OVC080 12/06 A3017
RMK AO2 SLP215 T01170061


USA.gov is the U.S. government's official web portal to all federal, state and local government web resources and services.